createdAt,value
2018-09-27T00:01:17.472Z,7.60
2018-09-27T00:03:44.779Z,7.50
2018-09-27T00:06:12.086Z,7.60
2018-09-27T00:08:39.557Z,7.50
2018-09-27T00:11:07.272Z,7.60
2018-09-27T00:13:34.570Z,7.50
2018-09-27T00:16:01.865Z,7.50
2018-09-27T00:18:29.186Z,7.50
2018-09-27T00:20:56.470Z,7.50
2018-09-27T00:23:23.766Z,7.40
2018-09-27T00:25:51.055Z,7.60
2018-09-27T00:28:18.363Z,7.60
2018-09-27T00:30:45.674Z,7.60
2018-09-27T00:33:13.171Z,7.60
2018-09-27T00:35:40.493Z,7.70
2018-09-27T00:38:07.774Z,7.70
2018-09-27T00:40:35.107Z,7.80
2018-09-27T00:43:02.450Z,7.70
2018-09-27T00:45:29.748Z,7.60
2018-09-27T00:47:57.082Z,7.40
2018-09-27T00:50:24.377Z,7.40
2018-09-27T00:52:51.730Z,7.40
2018-09-27T00:55:19.170Z,7.40
2018-09-27T00:57:46.508Z,7.20
2018-09-27T01:00:14.022Z,7.30
2018-09-27T01:02:41.348Z,7.20
2018-09-27T01:05:08.789Z,7.20
2018-09-27T01:07:36.241Z,7.20
2018-09-27T01:10:03.757Z,7.30
2018-09-27T01:12:31.161Z,7.40
2018-09-27T01:14:59.478Z,7.30
2018-09-27T01:17:27.178Z,7.20
2018-09-27T01:19:54.495Z,7.30
2018-09-27T01:22:21.885Z,7.10
2018-09-27T01:24:49.232Z,7.20
2018-09-27T01:27:16.770Z,7.30
2018-09-27T01:29:44.406Z,7.50
2018-09-27T01:32:11.918Z,7.40
2018-09-27T01:34:39.223Z,7.30
2018-09-27T01:37:06.665Z,7.30
2018-09-27T01:39:34.035Z,7.30
2018-09-27T01:42:01.379Z,7.20
2018-09-27T01:44:28.773Z,7.20
2018-09-27T01:46:56.172Z,7.20
2018-09-27T01:49:23.803Z,7.20
2018-09-27T01:51:51.168Z,7.20
2018-09-27T01:54:18.849Z,7.10
2018-09-27T01:56:46.278Z,6.90
2018-09-27T01:59:13.691Z,7.00
2018-09-27T02:01:41.181Z,6.80
2018-09-27T02:04:08.609Z,6.60
2018-09-27T02:06:36.081Z,6.40
2018-09-27T02:09:05.485Z,6.30
2018-09-27T02:11:32.924Z,6.20
2018-09-27T02:14:00.373Z,6.30
2018-09-27T02:16:27.721Z,6.30
2018-09-27T02:18:55.158Z,6.30
2018-09-27T02:21:22.527Z,6.30
2018-09-27T02:23:49.917Z,6.30
2018-09-27T02:26:17.383Z,6.30
2018-09-27T02:28:46.013Z,6.20
2018-09-27T02:31:14.179Z,6.20
2018-09-27T02:33:42.508Z,6.20
2018-09-27T02:36:10.411Z,6.20
2018-09-27T02:38:37.781Z,6.10
2018-09-27T02:41:05.167Z,6.30
2018-09-27T02:43:32.508Z,6.20
2018-09-27T02:45:59.921Z,6.30
2018-09-27T02:48:27.510Z,6.40
2018-09-27T02:50:55.230Z,6.40
2018-09-27T02:53:22.985Z,6.50
2018-09-27T02:55:51.661Z,6.60
2018-09-27T02:58:19.206Z,6.70
2018-09-27T03:00:47.308Z,6.70
2018-09-27T03:03:14.917Z,6.70
2018-09-27T03:05:42.294Z,6.50
2018-09-27T03:08:09.670Z,6.50
2018-09-27T03:10:37.096Z,6.60
2018-09-27T03:13:04.596Z,6.70
2018-09-27T03:15:31.912Z,6.80
2018-09-27T03:17:59.252Z,6.90
2018-09-27T03:20:26.634Z,6.90
2018-09-27T03:22:53.991Z,7.00
2018-09-27T03:25:21.453Z,6.90
2018-09-27T03:27:48.909Z,6.80
2018-09-27T03:30:16.284Z,6.70
2018-09-27T03:32:43.582Z,6.60
2018-09-27T03:35:11.076Z,6.50
2018-09-27T03:37:38.530Z,6.50
2018-09-27T03:40:05.922Z,6.40
2018-09-27T03:42:33.414Z,6.30
2018-09-27T03:45:00.876Z,6.30
2018-09-27T03:47:28.199Z,6.20
2018-09-27T03:49:55.722Z,6.10
2018-09-27T03:52:23.134Z,6.00
2018-09-27T03:54:50.530Z,5.90
2018-09-27T03:57:17.833Z,5.90
2018-09-27T03:59:45.293Z,5.80
2018-09-27T04:02:12.757Z,5.90
2018-09-27T04:04:40.132Z,6.00
2018-09-27T04:07:07.505Z,6.00
2018-09-27T04:09:36.023Z,6.00
2018-09-27T04:12:03.923Z,6.00
2018-09-27T04:14:31.289Z,6.10
2018-09-27T04:16:58.765Z,6.00
2018-09-27T04:19:26.256Z,5.90
2018-09-27T04:22:27.371Z,5.90
2018-09-27T04:24:54.845Z,5.90
2018-09-27T04:27:22.199Z,5.90
2018-09-27T04:29:57.919Z,5.80
2018-09-27T04:32:25.370Z,5.90
2018-09-27T04:34:52.729Z,5.80
2018-09-27T04:37:20.011Z,5.80
2018-09-27T04:39:47.478Z,5.70
2018-09-27T04:42:14.851Z,5.70
2018-09-27T04:44:42.260Z,5.80
2018-09-27T04:47:09.669Z,5.80
2018-09-27T04:49:37.075Z,5.80
2018-09-27T04:52:04.609Z,5.80
2018-09-27T04:54:32.155Z,5.80
2018-09-27T04:56:59.559Z,5.70
2018-09-27T04:59:26.967Z,5.60
2018-09-27T05:01:54.315Z,5.50
2018-09-27T05:04:21.679Z,5.50
2018-09-27T05:06:49.132Z,5.50
2018-09-27T05:09:16.865Z,5.40
2018-09-27T05:11:45.216Z,5.40
2018-09-27T05:14:12.695Z,5.50
2018-09-27T05:16:40.091Z,5.40
2018-09-27T05:19:07.597Z,5.20
2018-09-27T05:21:34.964Z,5.10
2018-09-27T05:24:02.401Z,5.20
2018-09-27T05:26:29.896Z,5.30
2018-09-27T05:28:57.307Z,5.30
2018-09-27T05:31:24.781Z,5.50
2018-09-27T05:33:52.079Z,5.60
2018-09-27T05:36:19.445Z,5.60
2018-09-27T05:38:58.130Z,5.80
2018-09-27T05:41:25.613Z,5.70
2018-09-27T05:43:53.035Z,5.90
2018-09-27T05:46:20.438Z,6.00
2018-09-27T05:48:47.894Z,6.10
2018-09-27T05:51:15.375Z,6.20
2018-09-27T05:53:42.876Z,6.40
2018-09-27T05:56:10.268Z,6.60
2018-09-27T05:58:37.642Z,6.70
2018-09-27T06:01:05.103Z,6.70
2018-09-27T06:03:45.293Z,6.80
2018-09-27T06:06:12.752Z,6.90
2018-09-27T06:08:40.170Z,6.90
2018-09-27T06:11:07.672Z,6.80
2018-09-27T06:13:35.068Z,6.70
2018-09-27T06:16:02.470Z,6.60
2018-09-27T06:18:30.082Z,6.50
2018-09-27T06:20:57.614Z,6.50
2018-09-27T06:23:25.049Z,6.70
2018-09-27T06:25:52.481Z,6.80
2018-09-27T06:28:19.898Z,7.00
2018-09-27T06:30:47.298Z,7.30
2018-09-27T06:33:14.818Z,7.40
2018-09-27T06:35:42.188Z,7.50
2018-09-27T06:38:09.543Z,7.60
2018-09-27T06:40:37.026Z,7.80
2018-09-27T06:43:05.447Z,7.80
2018-09-27T06:45:32.868Z,8.00
2018-09-27T06:48:00.188Z,8.20
2018-09-27T06:50:28.185Z,8.40
2018-09-27T06:52:57.722Z,8.70
2018-09-27T06:55:26.756Z,8.80
2018-09-27T06:57:54.386Z,9.00
2018-09-27T07:00:23.063Z,9.20
2018-09-27T07:02:50.563Z,9.40
2018-09-27T07:05:18.231Z,9.60
2018-09-27T07:07:46.411Z,9.70
2018-09-27T07:10:15.082Z,9.90
2018-09-27T07:12:42.556Z,9.90
2018-09-27T07:15:11.003Z,10.20
2018-09-27T07:17:38.448Z,10.40
2018-09-27T07:20:06.286Z,10.50
2018-09-27T07:22:34.115Z,10.50
2018-09-27T07:25:02.284Z,10.60
2018-09-27T07:27:30.741Z,10.70
2018-09-27T07:29:58.793Z,10.90
2018-09-27T07:32:27.098Z,11.00
2018-09-27T07:34:55.105Z,11.00
2018-09-27T07:37:22.911Z,11.20
2018-09-27T07:39:50.709Z,11.30
2018-09-27T07:42:19.469Z,11.50
2018-09-27T07:44:48.072Z,11.60
2018-09-27T07:47:15.511Z,11.70
2018-09-27T07:49:42.991Z,11.80
2018-09-27T07:52:10.281Z,11.90
2018-09-27T07:54:37.796Z,12.00
2018-09-27T07:57:05.226Z,12.20
2018-09-27T07:59:32.745Z,12.30
2018-09-27T08:02:00.135Z,12.30
2018-09-27T08:04:27.520Z,12.40
2018-09-27T08:06:54.943Z,12.50
2018-09-27T08:09:22.371Z,12.60
2018-09-27T08:11:49.973Z,12.70
2018-09-27T08:14:17.362Z,12.80
2018-09-27T08:16:44.807Z,12.90
2018-09-27T08:19:12.239Z,13.10
2018-09-27T08:21:39.833Z,13.30
2018-09-27T08:24:07.268Z,13.40
2018-09-27T08:26:34.770Z,13.40
2018-09-27T08:29:03.189Z,13.60
2018-09-27T08:31:30.886Z,13.70
2018-09-27T08:33:59.803Z,13.90
2018-09-27T08:36:28.132Z,14.10
2018-09-27T08:38:55.526Z,14.20
2018-09-27T08:41:22.900Z,14.40
2018-09-27T08:43:50.371Z,14.70
2018-09-27T08:46:17.811Z,15.00
2018-09-27T08:48:45.244Z,15.20
2018-09-27T08:51:12.694Z,15.70
2018-09-27T08:53:40.122Z,15.60
2018-09-27T08:56:07.641Z,15.90
2018-09-27T08:58:34.996Z,16.10
2018-09-27T09:01:02.542Z,16.00
2018-09-27T09:03:29.945Z,16.10
2018-09-27T09:05:57.362Z,16.30
2018-09-27T09:08:24.766Z,16.40
2018-09-27T09:10:53.067Z,16.50
2018-09-27T09:13:20.428Z,16.40
2018-09-27T09:15:47.928Z,16.60
2018-09-27T09:18:15.543Z,16.70
2018-09-27T09:20:43.265Z,16.90
2018-09-27T09:23:10.853Z,16.80
2018-09-27T09:25:38.323Z,17.00
2018-09-27T09:28:05.799Z,17.20
2018-09-27T09:30:33.205Z,17.20
2018-09-27T09:33:00.601Z,17.30
2018-09-27T09:35:28.048Z,17.40
2018-09-27T09:37:55.562Z,17.70
2018-09-27T09:40:22.973Z,17.70
2018-09-27T09:42:50.445Z,18.00
2018-09-27T09:45:17.890Z,18.10
2018-09-27T09:47:45.371Z,18.30
2018-09-27T09:50:12.838Z,18.50
2018-09-27T09:52:40.322Z,18.80
2018-09-27T09:55:07.783Z,18.90
2018-09-27T09:57:35.147Z,18.90
2018-09-27T10:00:02.695Z,19.00
2018-09-27T10:02:30.162Z,19.40
2018-09-27T10:04:57.555Z,19.80
2018-09-27T10:07:25.083Z,20.00
2018-09-27T10:09:52.475Z,20.20
2018-09-27T10:12:19.999Z,20.30
2018-09-27T10:14:47.369Z,20.20
2018-09-27T10:17:14.773Z,20.20
2018-09-27T10:19:42.191Z,20.40
2018-09-27T10:22:09.588Z,20.30
2018-09-27T10:24:37.027Z,20.40
2018-09-27T10:27:04.765Z,20.50
2018-09-27T10:29:32.177Z,20.50
2018-09-27T10:31:59.551Z,20.40
2018-09-27T10:34:26.950Z,20.70
2018-09-27T10:36:54.325Z,21.10
2018-09-27T10:39:21.667Z,21.20
2018-09-27T10:41:49.132Z,20.80
2018-09-27T10:44:16.582Z,21.20
2018-09-27T10:46:44.061Z,21.20
2018-09-27T10:49:11.466Z,21.50
2018-09-27T10:51:39.074Z,21.60
2018-09-27T10:54:06.900Z,21.80
2018-09-27T10:56:34.308Z,21.70
2018-09-27T10:59:01.885Z,22.10
2018-09-27T11:01:29.370Z,22.30
2018-09-27T11:03:56.935Z,22.40
2018-09-27T11:06:24.278Z,22.40
2018-09-27T11:08:51.686Z,22.50
2018-09-27T11:11:19.097Z,22.80
2018-09-27T11:13:46.423Z,22.90
2018-09-27T11:16:13.803Z,23.30
2018-09-27T11:18:41.198Z,23.40
2018-09-27T11:21:08.658Z,23.30
2018-09-27T11:23:36.062Z,23.20
2018-09-27T11:26:03.606Z,23.30
2018-09-27T11:28:36.596Z,23.30
2018-09-27T11:31:09.542Z,23.60
2018-09-27T11:33:37.952Z,23.40
2018-09-27T11:36:05.350Z,23.40
2018-09-27T11:38:34.417Z,23.50
2018-09-27T11:41:01.955Z,23.40
2018-09-27T11:43:33.080Z,23.30
2018-09-27T11:46:00.531Z,23.50
2018-09-27T11:48:30.963Z,23.70
2018-09-27T11:50:58.519Z,23.70
2018-09-27T11:53:30.661Z,23.80
2018-09-27T11:55:59.182Z,24.10
2018-09-27T11:58:26.696Z,24.00
2018-09-27T12:00:54.145Z,24.00
2018-09-27T12:03:21.822Z,24.00
2018-09-27T12:05:49.322Z,24.00
2018-09-27T12:08:16.855Z,24.20
2018-09-27T12:10:44.610Z,24.40
2018-09-27T12:13:17.415Z,24.50
2018-09-27T12:15:45.050Z,24.40
2018-09-27T12:18:16.160Z,24.40
2018-09-27T12:20:43.801Z,24.30
2018-09-27T12:23:11.286Z,24.30
2018-09-27T12:25:38.702Z,24.20
2018-09-27T12:28:06.028Z,24.30
2018-09-27T12:30:33.445Z,24.50
2018-09-27T12:33:00.922Z,24.50
2018-09-27T12:35:28.389Z,24.70
2018-09-27T12:37:55.866Z,24.60
2018-09-27T12:40:23.311Z,25.00
2018-09-27T12:42:50.848Z,24.60
2018-09-27T12:45:18.321Z,24.80
2018-09-27T12:47:45.638Z,25.00
2018-09-27T12:50:13.028Z,25.10
2018-09-27T12:52:40.477Z,25.00
2018-09-27T12:55:08.509Z,25.30
2018-09-27T12:57:39.731Z,25.30
2018-09-27T13:00:07.305Z,25.30
2018-09-27T13:02:35.232Z,25.20
2018-09-27T13:05:03.327Z,25.10
2018-09-27T13:07:31.141Z,25.10
2018-09-27T13:09:59.789Z,25.10
2018-09-27T13:12:29.461Z,24.70
2018-09-27T13:14:56.718Z,24.70
2018-09-27T13:17:24.384Z,24.80
2018-09-27T13:19:52.748Z,25.00
2018-09-27T13:22:20.064Z,25.10
2018-09-27T13:24:48.678Z,25.10
2018-09-27T13:27:16.127Z,25.30
2018-09-27T13:29:44.898Z,25.10
2018-09-27T13:32:15.373Z,24.60
2018-09-27T13:34:42.770Z,24.50
2018-09-27T13:37:10.457Z,24.70
2018-09-27T13:39:41.438Z,24.70
2018-09-27T13:42:10.540Z,24.60
2018-09-27T13:44:38.694Z,24.70
2018-09-27T13:47:07.378Z,25.00
2018-09-27T13:49:34.784Z,25.10
2018-09-27T13:52:02.895Z,24.90
2018-09-27T13:54:30.433Z,25.30
2018-09-27T13:56:57.929Z,25.60
2018-09-27T13:59:25.278Z,25.80
2018-09-27T14:01:52.731Z,25.50
2018-09-27T14:04:20.141Z,24.90
2018-09-27T14:06:47.543Z,24.80
2018-09-27T14:09:15.068Z,25.10
2018-09-27T14:11:42.442Z,24.90
2018-09-27T14:14:09.858Z,25.20
2018-09-27T14:16:37.370Z,25.30
2018-09-27T14:19:04.822Z,25.30
2018-09-27T14:21:32.362Z,25.70
2018-09-27T14:23:59.929Z,26.20
2018-09-27T14:26:27.360Z,27.10
2018-09-27T14:28:54.779Z,28.10
2018-09-27T14:31:22.147Z,29.70
2018-09-27T14:33:49.487Z,30.00
2018-09-27T14:36:22.959Z,30.60
2018-09-27T14:38:52.262Z,30.60
2018-09-27T14:41:19.854Z,30.20
2018-09-27T14:43:47.395Z,30.40
2018-09-27T14:46:16.102Z,29.70
2018-09-27T14:48:43.474Z,28.80
2018-09-27T14:51:10.861Z,28.40
2018-09-27T14:53:38.296Z,27.90
2018-09-27T14:56:05.791Z,27.30
2018-09-27T14:58:33.136Z,27.00
2018-09-27T15:01:00.603Z,27.00
2018-09-27T15:03:28.002Z,26.80
2018-09-27T15:05:55.480Z,27.20
2018-09-27T15:08:23.019Z,28.20
2018-09-27T15:10:50.565Z,29.10
2018-09-27T15:13:17.918Z,28.20
2018-09-27T15:15:45.498Z,26.60
2018-09-27T15:18:13.218Z,25.30
2018-09-27T15:20:40.840Z,24.80
2018-09-27T15:23:08.519Z,24.60
2018-09-27T15:25:37.996Z,24.10
2018-09-27T15:28:05.781Z,23.80
2018-09-27T15:30:35.248Z,23.70
2018-09-27T15:33:02.916Z,23.50
2018-09-27T15:35:30.644Z,23.50
2018-09-27T15:37:58.337Z,23.50
2018-09-27T15:40:25.798Z,23.40
2018-09-27T15:42:53.227Z,23.30
2018-09-27T15:45:20.668Z,23.20
2018-09-27T15:47:48.077Z,23.10
2018-09-27T15:50:16.458Z,23.10
2018-09-27T15:52:45.196Z,23.00
2018-09-27T15:55:12.976Z,22.90
2018-09-27T15:57:40.752Z,22.80
2018-09-27T16:00:08.280Z,22.70
2018-09-27T16:02:35.630Z,22.50
2018-09-27T16:05:03.303Z,22.50
2018-09-27T16:07:30.819Z,22.40
2018-09-27T16:09:58.644Z,22.30
2018-09-27T16:12:27.266Z,22.20
2018-09-27T16:14:54.755Z,22.10
2018-09-27T16:17:22.056Z,21.90
2018-09-27T16:19:49.610Z,21.80
2018-09-27T16:22:17.095Z,21.60
2018-09-27T16:24:44.491Z,21.60
2018-09-27T16:27:11.869Z,21.60
2018-09-27T16:29:39.285Z,21.50
2018-09-27T16:32:06.591Z,21.40
2018-09-27T16:34:34.019Z,21.20
2018-09-27T16:37:01.510Z,20.90
2018-09-27T16:39:29.014Z,20.60
2018-09-27T16:41:56.395Z,20.40
2018-09-27T16:44:23.779Z,20.30
2018-09-27T16:46:51.262Z,20.10
2018-09-27T16:49:18.732Z,20.00
2018-09-27T16:52:10.952Z,19.90
2018-09-27T16:54:38.295Z,19.80
2018-09-27T16:57:05.729Z,19.50
2018-09-27T16:59:35.406Z,19.40
2018-09-27T17:02:02.947Z,19.30
2018-09-27T17:04:30.410Z,19.10
2018-09-27T17:06:57.852Z,19.00
2018-09-27T17:09:25.302Z,18.80
2018-09-27T17:11:52.720Z,18.70
2018-09-27T17:14:20.262Z,18.50
2018-09-27T17:16:47.775Z,18.40
2018-09-27T17:19:16.109Z,18.40
2018-09-27T17:21:45.833Z,18.20
2018-09-27T17:24:13.591Z,18.00
2018-09-27T17:26:41.552Z,17.90
2018-09-27T17:29:09.157Z,17.70
2018-09-27T17:31:36.849Z,17.70
2018-09-27T17:34:04.290Z,17.50
2018-09-27T17:36:31.806Z,17.50
2018-09-27T17:38:59.327Z,17.40
2018-09-27T17:41:26.766Z,17.40
2018-09-27T17:43:54.314Z,17.20
2018-09-27T17:46:21.752Z,17.20
2018-09-27T17:48:49.202Z,17.10
2018-09-27T17:51:16.631Z,17.10
2018-09-27T17:53:44.089Z,17.00
2018-09-27T17:56:11.468Z,17.00
2018-09-27T17:58:38.876Z,16.80
2018-09-27T18:01:06.656Z,16.80
2018-09-27T18:03:34.348Z,16.60
2018-09-27T18:06:03.443Z,16.60
2018-09-27T18:08:31.171Z,16.50
2018-09-27T18:10:58.612Z,16.40
2018-09-27T18:13:27.221Z,16.40
2018-09-27T18:15:55.967Z,16.30
2018-09-27T18:18:24.730Z,16.20
2018-09-27T18:20:54.502Z,16.10
2018-09-27T18:23:22.371Z,16.00
2018-09-27T18:25:53.567Z,16.00
2018-09-27T18:28:21.302Z,15.90
2018-09-27T18:30:49.023Z,15.90
2018-09-27T18:33:16.691Z,15.80
2018-09-27T18:35:45.418Z,15.70
2018-09-27T18:38:12.980Z,15.60
2018-09-27T18:40:40.535Z,15.60
2018-09-27T18:43:10.239Z,15.40
2018-09-27T18:45:40.648Z,15.40
2018-09-27T18:48:08.261Z,15.40
2018-09-27T18:50:35.890Z,15.40
2018-09-27T18:53:03.627Z,15.40
2018-09-27T18:55:31.185Z,15.40
2018-09-27T18:57:58.713Z,15.40
2018-09-27T19:00:27.924Z,15.30
2018-09-27T19:02:55.998Z,15.30
2018-09-27T19:05:23.504Z,15.30
2018-09-27T19:07:51.152Z,15.30
2018-09-27T19:10:18.877Z,15.30
2018-09-27T19:12:46.511Z,15.20
2018-09-27T19:15:14.721Z,15.10
2018-09-27T19:17:42.364Z,15.10
2018-09-27T19:20:09.990Z,15.10
2018-09-27T19:22:38.048Z,15.10
2018-09-27T19:25:05.785Z,15.10
2018-09-27T19:27:33.319Z,15.10
2018-09-27T19:30:01.104Z,15.10
2018-09-27T19:32:28.814Z,15.10
2018-09-27T19:34:56.287Z,15.10
2018-09-27T19:37:23.771Z,15.00
2018-09-27T19:39:51.203Z,15.00
2018-09-27T19:42:18.731Z,15.00
2018-09-27T19:44:46.434Z,15.00
2018-09-27T19:47:13.928Z,15.00
2018-09-27T19:49:41.492Z,14.90
2018-09-27T19:52:17.282Z,14.90
2018-09-27T19:54:45.859Z,14.90
2018-09-27T19:57:13.423Z,14.80
2018-09-27T19:59:40.817Z,14.90
2018-09-27T20:02:08.373Z,14.80
2018-09-27T20:04:35.822Z,14.70
2018-09-27T20:07:03.301Z,14.60
2018-09-27T20:09:30.840Z,14.60
2018-09-27T20:11:58.238Z,14.50
2018-09-27T20:14:25.698Z,14.50
2018-09-27T20:16:53.254Z,14.40
2018-09-27T20:19:20.571Z,14.40
2018-09-27T20:21:47.974Z,14.40
2018-09-27T20:24:15.466Z,14.40
2018-09-27T20:26:42.857Z,14.30
2018-09-27T20:29:10.242Z,14.20
2018-09-27T20:31:37.709Z,14.10
2018-09-27T20:34:05.226Z,14.10
2018-09-27T20:36:32.655Z,14.10
2018-09-27T20:39:00.084Z,14.00
2018-09-27T20:41:27.528Z,13.90
2018-09-27T20:43:54.899Z,13.90
2018-09-27T20:46:22.421Z,13.80
2018-09-27T20:48:49.864Z,13.70
2018-09-27T20:51:17.447Z,13.70
2018-09-27T20:53:44.876Z,13.60
2018-09-27T20:56:12.297Z,13.60
2018-09-27T20:58:40.064Z,13.60
2018-09-27T21:01:07.635Z,13.60
2018-09-27T21:03:35.689Z,13.50
2018-09-27T21:06:04.871Z,13.50
2018-09-27T21:08:32.496Z,13.40
2018-09-27T21:11:00.025Z,13.40
2018-09-27T21:13:27.717Z,13.40
2018-09-27T21:15:55.209Z,13.40
2018-09-27T21:18:23.475Z,13.30
2018-09-27T21:20:51.320Z,13.30
2018-09-27T21:23:18.813Z,13.30
2018-09-27T21:25:46.859Z,13.30
2018-09-27T21:28:14.347Z,13.30
2018-09-27T21:30:42.062Z,13.30
2018-09-27T21:33:09.648Z,13.30
2018-09-27T21:35:37.353Z,13.30
2018-09-27T21:38:04.865Z,13.20
2018-09-27T21:40:32.462Z,13.10
2018-09-27T21:42:59.834Z,13.00
2018-09-27T21:45:27.350Z,12.90
2018-09-27T21:47:54.718Z,12.90
2018-09-27T21:50:22.124Z,12.80
2018-09-27T21:52:49.476Z,12.80
2018-09-27T21:55:16.872Z,12.80
2018-09-27T21:57:44.200Z,12.60
2018-09-27T22:00:11.770Z,12.40
2018-09-27T22:02:39.174Z,12.30
2018-09-27T22:05:06.782Z,12.30
2018-09-27T22:07:34.140Z,12.20
2018-09-27T22:10:02.392Z,12.20
2018-09-27T22:12:30.982Z,12.10
2018-09-27T22:14:58.496Z,12.00
2018-09-27T22:17:26.360Z,12.00
2018-09-27T22:19:54.134Z,12.00
2018-09-27T22:22:21.848Z,11.90
2018-09-27T22:24:49.609Z,11.80
2018-09-27T22:27:17.315Z,11.80
2018-09-27T22:29:44.739Z,11.80
2018-09-27T22:32:12.246Z,11.80
2018-09-27T22:34:39.727Z,11.70
2018-09-27T22:37:07.203Z,11.80
2018-09-27T22:39:34.662Z,11.70
2018-09-27T22:42:02.076Z,11.70
2018-09-27T22:44:29.527Z,11.70
2018-09-27T22:46:56.982Z,11.70
2018-09-27T22:49:24.394Z,11.60
2018-09-27T22:51:51.828Z,11.60
2018-09-27T22:54:19.253Z,11.40
2018-09-27T22:56:46.726Z,11.30
2018-09-27T22:59:14.233Z,11.30
2018-09-27T23:01:41.662Z,11.30
2018-09-27T23:04:09.128Z,11.40
2018-09-27T23:06:36.630Z,11.20
2018-09-27T23:09:05.824Z,11.10
2018-09-27T23:11:33.568Z,11.10
2018-09-27T23:14:02.795Z,11.20
2018-09-27T23:16:30.262Z,11.00
2018-09-27T23:18:57.694Z,10.90
2018-09-27T23:21:25.194Z,10.90
2018-09-27T23:23:52.625Z,10.80
2018-09-27T23:26:20.016Z,10.60
2018-09-27T23:28:47.394Z,10.60
2018-09-27T23:31:14.865Z,10.60
2018-09-27T23:33:42.347Z,10.60
2018-09-27T23:36:09.719Z,10.70
2018-09-27T23:38:37.023Z,10.70
2018-09-27T23:41:04.675Z,10.60
2018-09-27T23:43:32.433Z,10.70
2018-09-27T23:45:59.909Z,10.60
2018-09-27T23:48:27.322Z,10.60
2018-09-27T23:50:54.813Z,10.60
2018-09-27T23:53:22.326Z,10.50
2018-09-27T23:55:49.837Z,10.50
2018-09-27T23:58:17.151Z,10.50
